sensor_id;sensor_type;location;lat;lon;timestamp;temperature;humidity
57576;DHT22;43412;-33.800;150.804;2022-08-19T00:01:28;16.70;98.40
57576;DHT22;43412;-33.800;150.804;2022-08-19T00:03:58;16.80;97.90
57576;DHT22;43412;-33.800;150.804;2022-08-19T00:06:29;16.90;98.40
57576;DHT22;43412;-33.800;150.804;2022-08-19T00:08:58;17.00;98.40
57576;DHT22;43412;-33.800;150.804;2022-08-19T00:11:27;17.20;97.70
57576;DHT22;43412;-33.800;150.804;2022-08-19T00:13:55;17.20;97.20
57576;DHT22;43412;-33.800;150.804;2022-08-19T00:16:24;17.40;97.40
57576;DHT22;43412;-33.800;150.804;2022-08-19T00:18:53;17.50;96.90
57576;DHT22;43412;-33.800;150.804;2022-08-19T00:21:22;17.50;97.40
57576;DHT22;43412;-33.800;150.804;2022-08-19T00:23:51;17.60;96.20
57576;DHT22;43412;-33.800;150.804;2022-08-19T00:26:19;17.80;95.90
57576;DHT22;43412;-33.800;150.804;2022-08-19T00:28:47;18.10;95.60
57576;DHT22;43412;-33.800;150.804;2022-08-19T00:31:14;18.20;95.70
57576;DHT22;43412;-33.800;150.804;2022-08-19T00:33:43;18.30;95.70
57576;DHT22;43412;-33.800;150.804;2022-08-19T00:36:11;18.40;95.80
57576;DHT22;43412;-33.800;150.804;2022-08-19T00:38:39;18.50;95.30
57576;DHT22;43412;-33.800;150.804;2022-08-19T00:41:21;18.60;94.50
57576;DHT22;43412;-33.800;150.804;2022-08-19T00:44:05;19.00;94.60
57576;DHT22;43412;-33.800;150.804;2022-08-19T00:46:35;19.50;94.10
57576;DHT22;43412;-33.800;150.804;2022-08-19T00:49:17;20.00;93.60
57576;DHT22;43412;-33.800;150.804;2022-08-19T00:51:48;20.90;92.60
57576;DHT22;43412;-33.800;150.804;2022-08-19T00:54:17;21.50;91.00
57576;DHT22;43412;-33.800;150.804;2022-08-19T00:56:45;21.80;91.60
57576;DHT22;43412;-33.800;150.804;2022-08-19T00:59:13;21.90;90.70
57576;DHT22;43412;-33.800;150.804;2022-08-19T01:01:42;22.00;90.50
57576;DHT22;43412;-33.800;150.804;2022-08-19T01:04:10;21.90;90.20
57576;DHT22;43412;-33.800;150.804;2022-08-19T01:06:39;21.70;90.10
57576;DHT22;43412;-33.800;150.804;2022-08-19T01:09:08;21.50;90.20
57576;DHT22;43412;-33.800;150.804;2022-08-19T01:11:40;21.20;90.80
57576;DHT22;43412;-33.800;150.804;2022-08-19T01:14:08;20.80;91.10
57576;DHT22;43412;-33.800;150.804;2022-08-19T01:16:38;20.60;91.70
57576;DHT22;43412;-33.800;150.804;2022-08-19T01:19:31;20.50;92.20
57576;DHT22;43412;-33.800;150.804;2022-08-19T01:22:12;20.60;92.30
57576;DHT22;43412;-33.800;150.804;2022-08-19T01:24:41;21.10;91.80
57576;DHT22;43412;-33.800;150.804;2022-08-19T01:27:09;21.30;91.30
57576;DHT22;43412;-33.800;150.804;2022-08-19T01:29:40;21.40;91.50
57576;DHT22;43412;-33.800;150.804;2022-08-19T01:32:09;21.20;90.80
57576;DHT22;43412;-33.800;150.804;2022-08-19T01:34:39;20.70;90.90
57576;DHT22;43412;-33.800;150.804;2022-08-19T01:37:09;20.40;91.30
57576;DHT22;43412;-33.800;150.804;2022-08-19T01:39:39;20.20;92.10
57576;DHT22;43412;-33.800;150.804;2022-08-19T01:42:08;20.00;92.60
57576;DHT22;43412;-33.800;150.804;2022-08-19T01:44:37;19.70;92.80
57576;DHT22;43412;-33.800;150.804;2022-08-19T01:47:05;19.60;93.00
57576;DHT22;43412;-33.800;150.804;2022-08-19T01:49:33;19.60;92.70
57576;DHT22;43412;-33.800;150.804;2022-08-19T01:52:02;19.40;92.70
57576;DHT22;43412;-33.800;150.804;2022-08-19T01:54:30;19.40;92.70
57576;DHT22;43412;-33.800;150.804;2022-08-19T01:57:05;19.30;92.80
57576;DHT22;43412;-33.800;150.804;2022-08-19T01:59:34;19.30;92.80
57576;DHT22;43412;-33.800;150.804;2022-08-19T02:02:04;19.30;92.40
57576;DHT22;43412;-33.800;150.804;2022-08-19T02:04:36;19.40;92.60
57576;DHT22;43412;-33.800;150.804;2022-08-19T02:07:07;19.50;92.40
57576;DHT22;43412;-33.800;150.804;2022-08-19T02:09:35;19.60;92.20
57576;DHT22;43412;-33.800;150.804;2022-08-19T02:12:04;19.70;92.40
57576;DHT22;43412;-33.800;150.804;2022-08-19T02:14:34;20.30;92.60
57576;DHT22;43412;-33.800;150.804;2022-08-19T02:17:02;21.30;92.70
57576;DHT22;43412;-33.800;150.804;2022-08-19T02:19:30;22.10;91.00
57576;DHT22;43412;-33.800;150.804;2022-08-19T02:21:59;22.40;90.10
57576;DHT22;43412;-33.800;150.804;2022-08-19T02:24:27;22.90;89.80
57576;DHT22;43412;-33.800;150.804;2022-08-19T02:26:55;23.20;90.40
57576;DHT22;43412;-33.800;150.804;2022-08-19T02:29:22;24.00;88.10
57576;DHT22;43412;-33.800;150.804;2022-08-19T02:31:50;24.00;86.30
57576;DHT22;43412;-33.800;150.804;2022-08-19T02:34:18;24.30;85.70
57576;DHT22;43412;-33.800;150.804;2022-08-19T02:36:45;24.60;85.60
57576;DHT22;43412;-33.800;150.804;2022-08-19T02:39:12;24.70;87.20
57576;DHT22;43412;-33.800;150.804;2022-08-19T02:41:40;24.50;84.00
57576;DHT22;43412;-33.800;150.804;2022-08-19T02:44:07;24.00;86.00
57576;DHT22;43412;-33.800;150.804;2022-08-19T02:46:35;23.40;84.90
57576;DHT22;43412;-33.800;150.804;2022-08-19T02:49:07;22.80;86.60
57576;DHT22;43412;-33.800;150.804;2022-08-19T02:51:41;22.50;87.60
57576;DHT22;43412;-33.800;150.804;2022-08-19T02:54:10;22.10;87.50
57576;DHT22;43412;-33.800;150.804;2022-08-19T02:56:39;21.80;86.80
57576;DHT22;43412;-33.800;150.804;2022-08-19T02:59:07;21.50;87.50
57576;DHT22;43412;-33.800;150.804;2022-08-19T03:01:37;21.60;88.60
57576;DHT22;43412;-33.800;150.804;2022-08-19T03:04:09;21.90;88.40
57576;DHT22;43412;-33.800;150.804;2022-08-19T03:06:43;22.00;88.90
57576;DHT22;43412;-33.800;150.804;2022-08-19T03:09:12;21.90;87.00
57576;DHT22;43412;-33.800;150.804;2022-08-19T03:11:39;21.60;86.00
57576;DHT22;43412;-33.800;150.804;2022-08-19T03:14:08;21.30;87.80
57576;DHT22;43412;-33.800;150.804;2022-08-19T03:16:45;21.10;88.10
57576;DHT22;43412;-33.800;150.804;2022-08-19T03:19:13;21.20;89.00
57576;DHT22;43412;-33.800;150.804;2022-08-19T03:21:43;21.50;88.80
57576;DHT22;43412;-33.800;150.804;2022-08-19T03:24:14;21.70;90.00
57576;DHT22;43412;-33.800;150.804;2022-08-19T03:26:46;21.90;89.90
57576;DHT22;43412;-33.800;150.804;2022-08-19T03:29:14;22.20;87.20
57576;DHT22;43412;-33.800;150.804;2022-08-19T03:31:43;22.30;88.30
57576;DHT22;43412;-33.800;150.804;2022-08-19T03:34:17;22.10;88.60
57576;DHT22;43412;-33.800;150.804;2022-08-19T03:36:46;22.00;89.10
57576;DHT22;43412;-33.800;150.804;2022-08-19T03:39:14;21.80;90.10
57576;DHT22;43412;-33.800;150.804;2022-08-19T03:41:44;21.60;90.20
57576;DHT22;43412;-33.800;150.804;2022-08-19T03:44:13;21.40;90.60
57576;DHT22;43412;-33.800;150.804;2022-08-19T03:46:40;21.20;90.40
57576;DHT22;43412;-33.800;150.804;2022-08-19T03:49:08;21.10;90.80
57576;DHT22;43412;-33.800;150.804;2022-08-19T03:51:37;20.80;90.70
57576;DHT22;43412;-33.800;150.804;2022-08-19T03:54:07;20.70;90.90
57576;DHT22;43412;-33.800;150.804;2022-08-19T03:56:37;20.60;90.90
57576;DHT22;43412;-33.800;150.804;2022-08-19T03:59:07;20.50;91.10
57576;DHT22;43412;-33.800;150.804;2022-08-19T04:01:35;20.50;91.30
57576;DHT22;43412;-33.800;150.804;2022-08-19T04:04:03;20.50;91.20
57576;DHT22;43412;-33.800;150.804;2022-08-19T04:06:32;20.40;91.20
57576;DHT22;43412;-33.800;150.804;2022-08-19T04:09:03;20.40;91.40
57576;DHT22;43412;-33.800;150.804;2022-08-19T04:11:36;20.40;91.10
57576;DHT22;43412;-33.800;150.804;2022-08-19T04:14:07;20.20;91.00
57576;DHT22;43412;-33.800;150.804;2022-08-19T04:16:35;19.90;92.30
57576;DHT22;43412;-33.800;150.804;2022-08-19T04:19:04;19.70;94.10
57576;DHT22;43412;-33.800;150.804;2022-08-19T04:21:33;19.60;95.00
57576;DHT22;43412;-33.800;150.804;2022-08-19T04:24:01;19.50;95.40
57576;DHT22;43412;-33.800;150.804;2022-08-19T04:26:33;19.40;96.30
57576;DHT22;43412;-33.800;150.804;2022-08-19T04:29:04;19.40;95.50
57576;DHT22;43412;-33.800;150.804;2022-08-19T04:31:32;19.20;96.00
57576;DHT22;43412;-33.800;150.804;2022-08-19T04:34:05;19.20;97.50
57576;DHT22;43412;-33.800;150.804;2022-08-19T04:36:37;19.10;95.50
57576;DHT22;43412;-33.800;150.804;2022-08-19T04:39:10;18.90;95.60
57576;DHT22;43412;-33.800;150.804;2022-08-19T04:41:38;18.80;96.10
57576;DHT22;43412;-33.800;150.804;2022-08-19T04:44:24;18.70;97.50
57576;DHT22;43412;-33.800;150.804;2022-08-19T04:46:52;18.80;98.40
57576;DHT22;43412;-33.800;150.804;2022-08-19T04:49:21;19.10;97.80
57576;DHT22;43412;-33.800;150.804;2022-08-19T04:51:50;19.40;98.20
57576;DHT22;43412;-33.800;150.804;2022-08-19T04:54:23;19.20;97.50
57576;DHT22;43412;-33.800;150.804;2022-08-19T04:56:52;19.00;97.10
57576;DHT22;43412;-33.800;150.804;2022-08-19T04:59:22;18.90;97.00
57576;DHT22;43412;-33.800;150.804;2022-08-19T05:01:50;18.70;96.20
57576;DHT22;43412;-33.800;150.804;2022-08-19T05:04:20;18.60;96.50
57576;DHT22;43412;-33.800;150.804;2022-08-19T05:06:48;18.60;95.90
57576;DHT22;43412;-33.800;150.804;2022-08-19T05:09:18;18.50;95.40
57576;DHT22;43412;-33.800;150.804;2022-08-19T05:11:45;18.80;95.80
57576;DHT22;43412;-33.800;150.804;2022-08-19T05:14:13;18.90;96.00
57576;DHT22;43412;-33.800;150.804;2022-08-19T05:16:41;19.10;95.30
57576;DHT22;43412;-33.800;150.804;2022-08-19T05:19:09;19.30;94.90
57576;DHT22;43412;-33.800;150.804;2022-08-19T05:21:54;19.40;94.20
57576;DHT22;43412;-33.800;150.804;2022-08-19T05:24:40;19.50;94.00
57576;DHT22;43412;-33.800;150.804;2022-08-19T05:27:07;19.50;93.70
57576;DHT22;43412;-33.800;150.804;2022-08-19T05:29:35;19.60;94.00
57576;DHT22;43412;-33.800;150.804;2022-08-19T05:32:04;19.70;93.30
57576;DHT22;43412;-33.800;150.804;2022-08-19T05:34:32;19.50;93.20
57576;DHT22;43412;-33.800;150.804;2022-08-19T05:37:01;19.20;93.00
57576;DHT22;43412;-33.800;150.804;2022-08-19T05:39:32;18.90;93.00
57576;DHT22;43412;-33.800;150.804;2022-08-19T05:42:11;18.60;92.80
57576;DHT22;43412;-33.800;150.804;2022-08-19T05:44:41;18.50;92.50
57576;DHT22;43412;-33.800;150.804;2022-08-19T05:47:12;18.40;92.30
57576;DHT22;43412;-33.800;150.804;2022-08-19T05:49:42;18.30;91.80
57576;DHT22;43412;-33.800;150.804;2022-08-19T05:52:12;18.40;91.60
57576;DHT22;43412;-33.800;150.804;2022-08-19T05:54:40;18.50;91.40
57576;DHT22;43412;-33.800;150.804;2022-08-19T05:57:09;18.50;91.10
57576;DHT22;43412;-33.800;150.804;2022-08-19T05:59:37;18.60;91.10
57576;DHT22;43412;-33.800;150.804;2022-08-19T06:02:05;18.40;91.30
57576;DHT22;43412;-33.800;150.804;2022-08-19T06:04:33;18.50;91.80
57576;DHT22;43412;-33.800;150.804;2022-08-19T06:07:01;18.50;91.60
57576;DHT22;43412;-33.800;150.804;2022-08-19T06:09:28;18.60;91.60
57576;DHT22;43412;-33.800;150.804;2022-08-19T06:11:58;18.60;90.80
57576;DHT22;43412;-33.800;150.804;2022-08-19T06:14:29;18.60;90.70
57576;DHT22;43412;-33.800;150.804;2022-08-19T06:16:58;18.60;90.50
57576;DHT22;43412;-33.800;150.804;2022-08-19T06:19:29;18.50;90.10
57576;DHT22;43412;-33.800;150.804;2022-08-19T06:21:58;18.50;90.10
57576;DHT22;43412;-33.800;150.804;2022-08-19T06:24:27;18.50;89.70
57576;DHT22;43412;-33.800;150.804;2022-08-19T06:26:58;18.40;90.20
57576;DHT22;43412;-33.800;150.804;2022-08-19T06:29:27;18.40;90.10
57576;DHT22;43412;-33.800;150.804;2022-08-19T06:31:57;18.20;89.50
57576;DHT22;43412;-33.800;150.804;2022-08-19T06:34:26;18.00;88.80
57576;DHT22;43412;-33.800;150.804;2022-08-19T06:36:56;17.80;89.30
57576;DHT22;43412;-33.800;150.804;2022-08-19T06:39:26;17.60;90.00
57576;DHT22;43412;-33.800;150.804;2022-08-19T06:41:56;17.50;90.00
57576;DHT22;43412;-33.800;150.804;2022-08-19T06:44:26;17.30;90.10
57576;DHT22;43412;-33.800;150.804;2022-08-19T06:46:55;17.20;90.20
57576;DHT22;43412;-33.800;150.804;2022-08-19T06:49:23;17.10;90.00
57576;DHT22;43412;-33.800;150.804;2022-08-19T06:51:51;17.00;90.00
57576;DHT22;43412;-33.800;150.804;2022-08-19T06:54:19;16.90;90.30
57576;DHT22;43412;-33.800;150.804;2022-08-19T06:56:47;17.00;90.20
57576;DHT22;43412;-33.800;150.804;2022-08-19T06:59:17;16.90;90.10
57576;DHT22;43412;-33.800;150.804;2022-08-19T07:01:48;17.00;90.00
57576;DHT22;43412;-33.800;150.804;2022-08-19T07:04:18;17.00;90.10
57576;DHT22;43412;-33.800;150.804;2022-08-19T07:06:46;17.00;90.60
57576;DHT22;43412;-33.800;150.804;2022-08-19T07:09:15;17.00;90.10
57576;DHT22;43412;-33.800;150.804;2022-08-19T07:11:52;16.80;89.60
57576;DHT22;43412;-33.800;150.804;2022-08-19T07:14:23;16.70;89.20
57576;DHT22;43412;-33.800;150.804;2022-08-19T07:16:53;16.50;89.60
57576;DHT22;43412;-33.800;150.804;2022-08-19T07:19:22;16.40;89.80
57576;DHT22;43412;-33.800;150.804;2022-08-19T07:21:51;16.20;90.10
57576;DHT22;43412;-33.800;150.804;2022-08-19T07:24:23;16.10;90.40
57576;DHT22;43412;-33.800;150.804;2022-08-19T07:26:53;15.90;90.20
57576;DHT22;43412;-33.800;150.804;2022-08-19T07:29:21;15.80;90.30
57576;DHT22;43412;-33.800;150.804;2022-08-19T07:31:51;15.70;90.30
57576;DHT22;43412;-33.800;150.804;2022-08-19T07:34:19;15.60;90.20
57576;DHT22;43412;-33.800;150.804;2022-08-19T07:36:46;15.50;90.40
57576;DHT22;43412;-33.800;150.804;2022-08-19T07:39:23;15.40;90.40
57576;DHT22;43412;-33.800;150.804;2022-08-19T07:41:51;15.40;90.40
57576;DHT22;43412;-33.800;150.804;2022-08-19T07:44:19;15.30;90.50
57576;DHT22;43412;-33.800;150.804;2022-08-19T07:46:50;15.20;90.50
57576;DHT22;43412;-33.800;150.804;2022-08-19T07:49:19;15.10;90.70
57576;DHT22;43412;-33.800;150.804;2022-08-19T07:51:49;15.00;90.70
57576;DHT22;43412;-33.800;150.804;2022-08-19T07:54:18;14.90;90.80
57576;DHT22;43412;-33.800;150.804;2022-08-19T07:56:46;14.80;90.90
57576;DHT22;43412;-33.800;150.804;2022-08-19T07:59:13;14.80;91.00
57576;DHT22;43412;-33.800;150.804;2022-08-19T08:01:41;14.60;91.20
57576;DHT22;43412;-33.800;150.804;2022-08-19T08:04:08;14.60;91.10
57576;DHT22;43412;-33.800;150.804;2022-08-19T08:06:54;14.50;91.20
57576;DHT22;43412;-33.800;150.804;2022-08-19T08:09:41;14.40;91.00
57576;DHT22;43412;-33.800;150.804;2022-08-19T08:12:19;14.30;91.20
57576;DHT22;43412;-33.800;150.804;2022-08-19T08:14:51;14.20;91.60
57576;DHT22;43412;-33.800;150.804;2022-08-19T08:17:25;14.20;91.40
57576;DHT22;43412;-33.800;150.804;2022-08-19T08:19:54;14.10;91.60
57576;DHT22;43412;-33.800;150.804;2022-08-19T08:22:22;14.00;91.90
57576;DHT22;43412;-33.800;150.804;2022-08-19T08:25:18;13.90;91.90
57576;DHT22;43412;-33.800;150.804;2022-08-19T08:27:46;13.90;91.80
57576;DHT22;43412;-33.800;150.804;2022-08-19T08:30:22;13.80;92.20
57576;DHT22;43412;-33.800;150.804;2022-08-19T08:32:50;13.70;92.10
57576;DHT22;43412;-33.800;150.804;2022-08-19T08:35:21;13.70;92.10
57576;DHT22;43412;-33.800;150.804;2022-08-19T08:37:51;13.60;92.00
57576;DHT22;43412;-33.800;150.804;2022-08-19T08:40:39;13.60;92.00
57576;DHT22;43412;-33.800;150.804;2022-08-19T08:43:49;13.50;92.00
57576;DHT22;43412;-33.800;150.804;2022-08-19T08:46:35;13.40;92.30
57576;DHT22;43412;-33.800;150.804;2022-08-19T08:49:13;13.40;92.10
57576;DHT22;43412;-33.800;150.804;2022-08-19T08:51:51;13.40;92.30
57576;DHT22;43412;-33.800;150.804;2022-08-19T08:54:21;13.40;92.00
57576;DHT22;43412;-33.800;150.804;2022-08-19T08:56:53;13.40;92.10
57576;DHT22;43412;-33.800;150.804;2022-08-19T08:59:28;13.30;92.20
57576;DHT22;43412;-33.800;150.804;2022-08-19T09:01:58;13.20;92.40
57576;DHT22;43412;-33.800;150.804;2022-08-19T09:04:28;13.10;92.80
57576;DHT22;43412;-33.800;150.804;2022-08-19T09:15:32;12.80;92.70
57576;DHT22;43412;-33.800;150.804;2022-08-19T09:18:05;12.70;92.70
57576;DHT22;43412;-33.800;150.804;2022-08-19T09:20:33;12.70;92.60
57576;DHT22;43412;-33.800;150.804;2022-08-19T09:23:01;12.60;92.60
57576;DHT22;43412;-33.800;150.804;2022-08-19T09:25:29;12.50;92.70
57576;DHT22;43412;-33.800;150.804;2022-08-19T09:27:58;12.50;93.40
57576;DHT22;43412;-33.800;150.804;2022-08-19T09:30:32;12.30;93.80
57576;DHT22;43412;-33.800;150.804;2022-08-19T09:33:01;12.20;94.20
57576;DHT22;43412;-33.800;150.804;2022-08-19T09:35:30;12.10;94.10
57576;DHT22;43412;-33.800;150.804;2022-08-19T09:37:58;12.10;94.30
57576;DHT22;43412;-33.800;150.804;2022-08-19T09:40:30;11.90;94.80
57576;DHT22;43412;-33.800;150.804;2022-08-19T09:42:58;11.80;94.90
57576;DHT22;43412;-33.800;150.804;2022-08-19T09:45:29;11.80;95.50
57576;DHT22;43412;-33.800;150.804;2022-08-19T09:47:56;11.70;95.10
57576;DHT22;43412;-33.800;150.804;2022-08-19T09:50:24;11.60;95.40
57576;DHT22;43412;-33.800;150.804;2022-08-19T09:52:52;11.50;95.50
57576;DHT22;43412;-33.800;150.804;2022-08-19T09:55:20;11.30;95.80
57576;DHT22;43412;-33.800;150.804;2022-08-19T09:57:47;11.30;96.20
57576;DHT22;43412;-33.800;150.804;2022-08-19T10:00:15;11.20;96.80
57576;DHT22;43412;-33.800;150.804;2022-08-19T10:02:42;11.20;96.30
57576;DHT22;43412;-33.800;150.804;2022-08-19T10:05:09;11.10;96.60
57576;DHT22;43412;-33.800;150.804;2022-08-19T10:07:55;11.00;96.80
57576;DHT22;43412;-33.800;150.804;2022-08-19T10:10:24;10.90;97.30
57576;DHT22;43412;-33.800;150.804;2022-08-19T10:12:52;10.80;97.50
57576;DHT22;43412;-33.800;150.804;2022-08-19T10:15:21;10.70;97.40
57576;DHT22;43412;-33.800;150.804;2022-08-19T10:17:48;10.70;98.00
57576;DHT22;43412;-33.800;150.804;2022-08-19T10:20:16;10.60;98.10
57576;DHT22;43412;-33.800;150.804;2022-08-19T10:22:44;10.60;98.20
57576;DHT22;43412;-33.800;150.804;2022-08-19T10:25:12;10.50;97.60
57576;DHT22;43412;-33.800;150.804;2022-08-19T10:27:40;10.40;97.90
57576;DHT22;43412;-33.800;150.804;2022-08-19T10:30:09;10.40;98.20
57576;DHT22;43412;-33.800;150.804;2022-08-19T10:32:37;10.40;98.30
57576;DHT22;43412;-33.800;150.804;2022-08-19T10:35:04;10.40;97.70
57576;DHT22;43412;-33.800;150.804;2022-08-19T10:37:36;10.40;97.80
57576;DHT22;43412;-33.800;150.804;2022-08-19T10:40:05;10.40;98.10
57576;DHT22;43412;-33.800;150.804;2022-08-19T10:42:34;10.40;98.20
57576;DHT22;43412;-33.800;150.804;2022-08-19T10:45:02;10.30;98.30
57576;DHT22;43412;-33.800;150.804;2022-08-19T10:47:30;10.30;98.40
57576;DHT22;43412;-33.800;150.804;2022-08-19T10:49:57;10.20;98.50
57576;DHT22;43412;-33.800;150.804;2022-08-19T10:52:47;10.20;97.90
57576;DHT22;43412;-33.800;150.804;2022-08-19T10:55:17;10.10;97.70
57576;DHT22;43412;-33.800;150.804;2022-08-19T10:58:03;10.10;97.90
57576;DHT22;43412;-33.800;150.804;2022-08-19T11:00:30;10.00;98.20
57576;DHT22;43412;-33.800;150.804;2022-08-19T11:02:58;10.00;98.00
57576;DHT22;43412;-33.800;150.804;2022-08-19T11:05:25;10.00;98.10
57576;DHT22;43412;-33.800;150.804;2022-08-19T11:07:53;9.90;98.30
57576;DHT22;43412;-33.800;150.804;2022-08-19T11:10:20;9.80;98.60
57576;DHT22;43412;-33.800;150.804;2022-08-19T11:12:50;9.80;98.90
57576;DHT22;43412;-33.800;150.804;2022-08-19T11:15:21;9.70;99.20
57576;DHT22;43412;-33.800;150.804;2022-08-19T11:17:48;9.70;99.30
57576;DHT22;43412;-33.800;150.804;2022-08-19T11:20:18;9.60;99.30
57576;DHT22;43412;-33.800;150.804;2022-08-19T11:22:46;9.50;99.50
57576;DHT22;43412;-33.800;150.804;2022-08-19T11:25:13;9.50;99.90
57576;DHT22;43412;-33.800;150.804;2022-08-19T11:27:41;9.40;99.90
57576;DHT22;43412;-33.800;150.804;2022-08-19T11:30:11;9.40;99.90
57576;DHT22;43412;-33.800;150.804;2022-08-19T11:32:39;9.30;99.90
57576;DHT22;43412;-33.800;150.804;2022-08-19T11:35:07;9.30;99.90
57576;DHT22;43412;-33.800;150.804;2022-08-19T11:37:35;9.20;99.90
57576;DHT22;43412;-33.800;150.804;2022-08-19T11:40:06;9.10;99.90
57576;DHT22;43412;-33.800;150.804;2022-08-19T11:42:33;9.10;99.90
57576;DHT22;43412;-33.800;150.804;2022-08-19T11:45:19;9.10;99.90
57576;DHT22;43412;-33.800;150.804;2022-08-19T11:47:46;9.00;99.90
57576;DHT22;43412;-33.800;150.804;2022-08-19T11:50:15;8.90;99.90
57576;DHT22;43412;-33.800;150.804;2022-08-19T11:52:43;8.90;99.90
57576;DHT22;43412;-33.800;150.804;2022-08-19T11:55:12;8.90;99.90
57576;DHT22;43412;-33.800;150.804;2022-08-19T11:57:41;8.90;99.90
57576;DHT22;43412;-33.800;150.804;2022-08-19T12:00:10;8.80;99.90
57576;DHT22;43412;-33.800;150.804;2022-08-19T12:02:40;8.80;99.90
57576;DHT22;43412;-33.800;150.804;2022-08-19T12:05:09;8.80;99.90
57576;DHT22;43412;-33.800;150.804;2022-08-19T12:07:36;8.80;99.90
57576;DHT22;43412;-33.800;150.804;2022-08-19T12:10:04;8.70;99.90
57576;DHT22;43412;-33.800;150.804;2022-08-19T12:12:31;8.70;99.90
57576;DHT22;43412;-33.800;150.804;2022-08-19T12:14:59;8.70;99.90
57576;DHT22;43412;-33.800;150.804;2022-08-19T12:17:27;8.70;99.90
57576;DHT22;43412;-33.800;150.804;2022-08-19T12:19:55;8.60;99.90
57576;DHT22;43412;-33.800;150.804;2022-08-19T12:22:22;8.50;99.90
57576;DHT22;43412;-33.800;150.804;2022-08-19T12:24:49;8.40;99.90
57576;DHT22;43412;-33.800;150.804;2022-08-19T12:27:19;8.40;99.90
57576;DHT22;43412;-33.800;150.804;2022-08-19T12:29:47;8.30;99.90
57576;DHT22;43412;-33.800;150.804;2022-08-19T12:32:15;8.30;99.90
57576;DHT22;43412;-33.800;150.804;2022-08-19T12:34:43;8.20;99.90
57576;DHT22;43412;-33.800;150.804;2022-08-19T12:37:11;8.20;99.90
57576;DHT22;43412;-33.800;150.804;2022-08-19T12:39:41;8.20;99.90
57576;DHT22;43412;-33.800;150.804;2022-08-19T12:42:10;8.20;99.90
57576;DHT22;43412;-33.800;150.804;2022-08-19T12:44:40;8.10;99.90
57576;DHT22;43412;-33.800;150.804;2022-08-19T12:47:09;8.10;99.90
57576;DHT22;43412;-33.800;150.804;2022-08-19T12:49:37;8.10;99.90
57576;DHT22;43412;-33.800;150.804;2022-08-19T12:52:07;8.10;99.90
57576;DHT22;43412;-33.800;150.804;2022-08-19T12:54:36;8.10;99.90
57576;DHT22;43412;-33.800;150.804;2022-08-19T12:57:08;8.00;99.90
57576;DHT22;43412;-33.800;150.804;2022-08-19T12:59:36;8.00;99.90
57576;DHT22;43412;-33.800;150.804;2022-08-19T13:02:05;8.00;99.90
57576;DHT22;43412;-33.800;150.804;2022-08-19T13:04:33;8.00;99.90
57576;DHT22;43412;-33.800;150.804;2022-08-19T13:07:07;8.00;99.90
57576;DHT22;43412;-33.800;150.804;2022-08-19T13:09:35;8.00;99.90
57576;DHT22;43412;-33.800;150.804;2022-08-19T13:12:03;8.00;99.90
57576;DHT22;43412;-33.800;150.804;2022-08-19T13:14:35;7.90;99.90
57576;DHT22;43412;-33.800;150.804;2022-08-19T13:17:02;8.00;99.90
57576;DHT22;43412;-33.800;150.804;2022-08-19T13:19:30;8.00;99.90
57576;DHT22;43412;-33.800;150.804;2022-08-19T13:21:58;8.10;99.90
57576;DHT22;43412;-33.800;150.804;2022-08-19T13:24:25;8.10;99.90
57576;DHT22;43412;-33.800;150.804;2022-08-19T13:26:53;8.20;99.90
57576;DHT22;43412;-33.800;150.804;2022-08-19T13:29:20;8.30;99.90
57576;DHT22;43412;-33.800;150.804;2022-08-19T13:32:05;8.30;99.90
57576;DHT22;43412;-33.800;150.804;2022-08-19T13:34:51;8.20;99.90
57576;DHT22;43412;-33.800;150.804;2022-08-19T13:37:18;8.00;99.90
57576;DHT22;43412;-33.800;150.804;2022-08-19T13:40:07;7.80;99.90
57576;DHT22;43412;-33.800;150.804;2022-08-19T13:42:41;7.80;99.90
57576;DHT22;43412;-33.800;150.804;2022-08-19T13:45:09;7.80;99.90
57576;DHT22;43412;-33.800;150.804;2022-08-19T13:47:37;7.70;99.90
57576;DHT22;43412;-33.800;150.804;2022-08-19T13:50:16;7.60;99.90
57576;DHT22;43412;-33.800;150.804;2022-08-19T13:52:45;7.60;99.90
57576;DHT22;43412;-33.800;150.804;2022-08-19T13:55:14;7.50;99.90
57576;DHT22;43412;-33.800;150.804;2022-08-19T13:57:42;7.50;99.90
57576;DHT22;43412;-33.800;150.804;2022-08-19T14:00:13;7.50;99.90
57576;DHT22;43412;-33.800;150.804;2022-08-19T14:02:41;7.40;99.90
57576;DHT22;43412;-33.800;150.804;2022-08-19T14:05:12;7.40;99.90
57576;DHT22;43412;-33.800;150.804;2022-08-19T14:07:39;7.50;99.90
57576;DHT22;43412;-33.800;150.804;2022-08-19T14:10:09;7.50;99.90
57576;DHT22;43412;-33.800;150.804;2022-08-19T14:12:38;7.50;99.90
57576;DHT22;43412;-33.800;150.804;2022-08-19T14:15:07;7.50;99.90
57576;DHT22;43412;-33.800;150.804;2022-08-19T14:17:37;7.50;99.90
57576;DHT22;43412;-33.800;150.804;2022-08-19T14:20:07;7.50;99.90
57576;DHT22;43412;-33.800;150.804;2022-08-19T14:22:38;7.50;99.90
57576;DHT22;43412;-33.800;150.804;2022-08-19T14:25:07;7.50;99.90
57576;DHT22;43412;-33.800;150.804;2022-08-19T14:27:36;7.50;99.90
57576;DHT22;43412;-33.800;150.804;2022-08-19T14:30:09;7.40;99.90
57576;DHT22;43412;-33.800;150.804;2022-08-19T14:32:37;7.40;99.90
57576;DHT22;43412;-33.800;150.804;2022-08-19T14:35:05;7.50;99.90
57576;DHT22;43412;-33.800;150.804;2022-08-19T14:37:34;7.40;99.90
57576;DHT22;43412;-33.800;150.804;2022-08-19T14:40:03;7.40;99.90
57576;DHT22;43412;-33.800;150.804;2022-08-19T14:42:31;7.40;99.90
57576;DHT22;43412;-33.800;150.804;2022-08-19T14:44:59;7.40;99.90
57576;DHT22;43412;-33.800;150.804;2022-08-19T14:47:27;7.40;99.90
57576;DHT22;43412;-33.800;150.804;2022-08-19T14:49:55;7.40;99.90
57576;DHT22;43412;-33.800;150.804;2022-08-19T14:52:22;7.30;99.90
57576;DHT22;43412;-33.800;150.804;2022-08-19T14:54:50;7.30;99.90
57576;DHT22;43412;-33.800;150.804;2022-08-19T14:57:18;7.40;99.90
57576;DHT22;43412;-33.800;150.804;2022-08-19T14:59:46;7.40;99.90
57576;DHT22;43412;-33.800;150.804;2022-08-19T15:02:14;7.40;99.90
57576;DHT22;43412;-33.800;150.804;2022-08-19T15:04:41;7.40;99.90
57576;DHT22;43412;-33.800;150.804;2022-08-19T15:07:10;7.40;99.90
57576;DHT22;43412;-33.800;150.804;2022-08-19T15:09:38;7.40;99.90
57576;DHT22;43412;-33.800;150.804;2022-08-19T15:12:05;7.40;99.90
57576;DHT22;43412;-33.800;150.804;2022-08-19T15:14:35;7.50;99.90
57576;DHT22;43412;-33.800;150.804;2022-08-19T15:17:04;7.50;99.90
57576;DHT22;43412;-33.800;150.804;2022-08-19T15:19:32;7.50;99.90